Time,TemperatureF,DewpointF,PressureIn,WindDirection,WindDirectionDegrees,WindSpeedMPH,WindSpeedGustMPH,Humidity,HourlyPrecipIn,Conditions,Clouds,dailyrainin,SoftwareType,DateUTC
2013-05-11 00:02:00,53.1,45.3,29.83,WSW,248,3.0,3.0,75,0.00,,,0.03,meteohub,2013-05-10 22:02:00,
2013-05-11 00:04:00,53.1,45.3,29.83,NNE,23,0.0,2.0,75,0.00,,,0.03,meteohub,2013-05-10 22:04:00,
2013-05-11 00:09:00,53.1,45.3,29.83,NNE,23,0.0,3.0,75,0.00,,,0.00,meteohub,2013-05-10 22:09:00,
2013-05-11 00:14:00,52.7,45.3,29.83,WSW,248,0.0,3.0,76,0.00,,,0.00,meteohub,2013-05-10 22:14:00,
2013-05-11 00:19:00,52.7,45.3,29.83,SSW,203,2.0,3.0,76,0.00,,,0.00,meteohub,2013-05-10 22:19:00,
2013-05-11 00:24:00,52.3,45.0,29.83,SSE,158,1.0,3.0,76,0.00,,,0.00,meteohub,2013-05-10 22:24:00,
2013-05-11 00:29:00,52.3,45.0,29.83,WSW,248,2.0,3.0,76,0.00,,,0.00,meteohub,2013-05-10 22:29:00,
2013-05-11 00:34:00,52.3,45.3,29.83,NW,315,2.0,3.0,77,0.00,,,0.00,meteohub,2013-05-10 22:34:00,
2013-05-11 00:39:00,52.2,45.1,29.83,NNW,338,1.0,3.0,77,0.00,,,0.00,meteohub,2013-05-10 22:39:00,
2013-05-11 00:44:00,52.0,45.0,29.83,SSW,203,3.0,3.0,77,0.00,,,0.00,meteohub,2013-05-10 22:44:00,
2013-05-11 00:49:00,52.0,45.0,29.83,WSW,248,4.0,4.0,77,0.00,,,0.00,meteohub,2013-05-10 22:49:00,
2013-05-11 00:54:00,52.0,45.3,29.83,SSW,203,2.0,4.0,78,0.00,,,0.00,meteohub,2013-05-10 22:54:00,
2013-05-11 00:59:00,51.8,45.1,29.83,WNW,293,3.0,4.0,78,0.00,,,0.00,meteohub,2013-05-10 22:59:00,
2013-05-11 01:04:00,51.6,45.0,29.83,West,270,2.0,4.0,78,0.00,,,0.00,meteohub,2013-05-10 23:04:00,
2013-05-11 01:09:00,51.6,45.0,29.83,SSE,158,4.0,4.0,78,0.00,,,0.00,meteohub,2013-05-10 23:09:00,
2013-05-11 01:14:00,51.4,44.8,29.83,WNW,293,0.0,3.0,78,0.00,,,0.00,meteohub,2013-05-10 23:14:00,
2013-05-11 01:19:00,51.6,45.0,29.83,NW,315,0.0,4.0,78,0.00,,,0.00,meteohub,2013-05-10 23:19:00,
2013-05-11 01:24:00,51.4,45.1,29.83,ESE,113,0.0,4.0,79,0.00,,,0.00,meteohub,2013-05-10 23:24:00,
2013-05-11 01:29:00,51.3,45.0,29.83,South,180,2.0,2.0,79,0.00,,,0.00,meteohub,2013-05-10 23:29:00,
2013-05-11 01:34:00,51.1,44.8,29.83,WSW,248,0.0,2.0,79,0.00,,,0.00,meteohub,2013-05-10 23:34:00,
2013-05-11 01:39:00,51.3,45.0,29.83,NW,315,2.0,2.0,79,0.00,,,0.00,meteohub,2013-05-10 23:39:00,
2013-05-11 01:44:00,50.9,45.0,29.83,NNW,338,0.0,2.0,80,0.00,,,0.00,meteohub,2013-05-10 23:44:00,
2013-05-11 01:49:00,50.9,45.0,29.83,WSW,248,4.0,4.0,80,0.00,,,0.00,meteohub,2013-05-10 23:49:00,
2013-05-11 01:54:00,50.7,44.8,29.83,SSE,158,2.0,4.0,80,0.00,,,0.00,meteohub,2013-05-10 23:54:00,
2013-05-11 01:59:00,50.7,45.1,29.83,WSW,248,3.0,4.0,81,0.00,,,0.00,meteohub,2013-05-10 23:59:00,
2013-05-11 02:04:00,50.7,45.1,29.83,WSW,248,2.0,4.0,81,0.00,,,0.00,meteohub,2013-05-11 00:04:00,
2013-05-11 02:09:00,50.9,45.3,29.83,NW,315,3.0,3.0,81,0.00,,,0.00,meteohub,2013-05-11 00:09:00,
2013-05-11 02:14:00,50.5,45.0,29.83,WSW,248,2.0,3.0,81,0.00,,,0.00,meteohub,2013-05-11 00:14:00,
2013-05-11 02:19:00,50.7,45.1,29.82,NW,315,0.0,3.0,81,0.00,,,0.00,meteohub,2013-05-11 00:19:00,
2013-05-11 02:24:00,50.9,45.3,29.82,NW,315,3.0,3.0,81,0.00,,,0.00,meteohub,2013-05-11 00:24:00,
2013-05-11 02:29:00,50.9,45.3,29.82,NNW,338,0.0,3.0,81,0.00,,,0.00,meteohub,2013-05-11 00:29:00,
2013-05-11 02:34:00,50.9,45.3,29.82,West,270,2.0,3.0,81,0.00,,,0.00,meteohub,2013-05-11 00:34:00,
2013-05-11 02:39:00,51.3,45.7,29.81,WSW,248,0.0,3.0,81,0.00,,,0.00,meteohub,2013-05-11 00:39:00,
2013-05-11 02:44:00,51.1,45.5,29.81,NNE,23,0.0,3.0,81,0.00,,,0.00,meteohub,2013-05-11 00:44:00,
2013-05-11 02:49:00,50.9,45.3,29.81,West,270,2.0,2.0,81,0.00,,,0.00,meteohub,2013-05-11 00:49:00,
2013-05-11 02:54:00,50.7,45.1,29.81,North,0,0.0,2.0,81,0.00,,,0.00,meteohub,2013-05-11 00:54:00,
2013-05-11 02:59:00,50.7,45.1,29.81,NNW,338,0.0,2.0,81,0.00,,,0.00,meteohub,2013-05-11 00:59:00,
2013-05-11 03:04:00,50.7,45.1,29.81,NNE,23,0.0,2.0,81,0.00,,,0.00,meteohub,2013-05-11 01:04:00,
2013-05-11 03:09:00,50.7,45.1,29.81,NNE,23,0.0,2.0,81,0.00,,,0.00,meteohub,2013-05-11 01:09:00,
2013-05-11 03:15:00,50.9,45.7,29.81,NW,315,0.0,0.0,82,0.00,,,0.00,meteohub,2013-05-11 01:15:00,
2013-05-11 03:20:00,50.9,45.7,29.81,NNE,23,0.0,0.0,82,0.00,,,0.00,meteohub,2013-05-11 01:20:00,
2013-05-11 03:25:00,50.9,45.7,29.81,WNW,293,0.0,0.0,82,0.00,,,0.00,meteohub,2013-05-11 01:25:00,
2013-05-11 03:30:00,51.1,45.9,29.81,NW,315,0.0,2.0,82,0.00,,,0.00,meteohub,2013-05-11 01:30:00,
2013-05-11 03:35:00,51.3,46.0,29.81,WSW,248,2.0,2.0,82,0.00,,,0.00,meteohub,2013-05-11 01:35:00,
2013-05-11 03:40:00,51.3,46.0,29.81,WNW,293,2.0,3.0,82,0.00,,,0.00,meteohub,2013-05-11 01:40:00,
2013-05-11 03:45:00,51.3,46.0,29.81,WSW,248,2.0,3.0,82,0.00,,,0.00,meteohub,2013-05-11 01:45:00,
2013-05-11 03:50:00,51.3,45.7,29.81,West,270,3.0,3.0,81,0.00,,,0.00,meteohub,2013-05-11 01:50:00,
2013-05-11 03:55:00,50.9,45.7,29.81,West,270,2.0,3.0,82,0.00,,,0.00,meteohub,2013-05-11 01:55:00,
2013-05-11 04:00:00,50.9,45.7,29.80,SW,225,3.0,3.0,82,0.00,,,0.00,meteohub,2013-05-11 02:00:00,
2013-05-11 04:05:00,50.9,45.7,29.80,South,180,2.0,3.0,82,0.00,,,0.00,meteohub,2013-05-11 02:05:00,
2013-05-11 04:10:00,50.9,45.7,29.80,WNW,293,2.0,3.0,82,0.00,,,0.00,meteohub,2013-05-11 02:10:00,
2013-05-11 04:15:00,51.1,46.0,29.80,WSW,248,3.0,3.0,83,0.00,,,0.00,meteohub,2013-05-11 02:15:00,
2013-05-11 04:20:00,51.3,46.2,29.80,NW,315,0.0,4.0,83,0.00,,,0.00,meteohub,2013-05-11 02:20:00,
2013-05-11 04:25:00,51.3,46.2,29.80,WNW,293,2.0,4.0,83,0.00,,,0.00,meteohub,2013-05-11 02:25:00,
2013-05-11 04:30:00,51.3,46.2,29.80,NNW,338,3.0,4.0,83,0.00,,,0.00,meteohub,2013-05-11 02:30:00,
2013-05-11 04:35:00,51.3,46.2,29.80,WSW,248,2.0,3.0,83,0.00,,,0.00,meteohub,2013-05-11 02:35:00,
2013-05-11 04:40:00,51.3,46.2,29.81,ESE,113,2.0,4.0,83,0.00,,,0.00,meteohub,2013-05-11 02:40:00,
2013-05-11 04:45:00,51.4,46.4,29.81,SSE,158,2.0,4.0,83,0.00,,,0.00,meteohub,2013-05-11 02:45:00,
2013-05-11 04:50:00,51.4,46.4,29.81,NW,315,0.0,4.0,83,0.00,,,0.00,meteohub,2013-05-11 02:50:00,
2013-05-11 04:55:00,51.6,46.6,29.81,NW,315,1.0,3.0,83,0.00,,,0.00,meteohub,2013-05-11 02:55:00,
2013-05-11 05:00:00,51.6,46.6,29.79,SE,135,2.0,4.0,83,0.00,,,0.00,meteohub,2013-05-11 03:00:00,
2013-05-11 05:05:00,51.4,46.4,29.79,West,270,2.0,4.0,83,0.00,,,0.00,meteohub,2013-05-11 03:05:00,
2013-05-11 05:10:00,51.4,46.4,29.79,NE,45,1.0,4.0,83,0.00,,,0.00,meteohub,2013-05-11 03:10:00,
2013-05-11 05:15:00,51.4,46.4,29.79,NW,315,2.0,2.0,83,0.00,,,0.00,meteohub,2013-05-11 03:15:00,
2013-05-11 05:20:00,51.4,46.4,29.79,NW,315,2.0,3.0,83,0.00,,,0.00,meteohub,2013-05-11 03:20:00,
2013-05-11 05:25:00,51.6,46.6,29.79,NW,315,1.0,3.0,83,0.00,,,0.00,meteohub,2013-05-11 03:25:00,
2013-05-11 05:30:00,51.6,46.6,29.79,SE,135,2.0,3.0,83,0.00,,,0.00,meteohub,2013-05-11 03:30:00,
2013-05-11 05:35:00,51.8,46.8,29.79,WSW,248,4.0,4.0,83,0.00,,,0.00,meteohub,2013-05-11 03:35:00,
2013-05-11 05:40:00,51.6,46.2,29.79,SE,135,4.0,4.0,82,0.00,,,0.00,meteohub,2013-05-11 03:40:00,
2013-05-11 05:45:00,51.8,46.4,29.79,SW,225,2.0,4.0,82,0.00,,,0.00,meteohub,2013-05-11 03:45:00,
2013-05-11 05:50:00,51.6,46.2,29.79,ESE,113,3.0,4.0,82,0.00,,,0.00,meteohub,2013-05-11 03:50:00,
2013-05-11 05:55:00,52.0,46.6,29.79,WSW,248,6.0,6.0,82,0.00,,,0.00,meteohub,2013-05-11 03:55:00,
2013-05-11 06:01:00,52.0,46.6,29.78,WNW,293,2.0,6.0,82,0.00,,,0.00,meteohub,2013-05-11 04:01:00,
2013-05-11 06:02:00,52.0,46.6,29.78,WNW,293,2.0,6.0,82,0.00,,,0.00,meteohub,2013-05-11 04:02:00,
2013-05-11 06:07:00,51.8,46.4,29.78,NW,315,0.0,6.0,82,0.00,,,0.00,meteohub,2013-05-11 04:07:00,
2013-05-11 06:12:00,52.0,46.6,29.78,ESE,113,2.0,3.0,82,0.00,,,0.00,meteohub,2013-05-11 04:12:00,
2013-05-11 06:17:00,52.0,46.6,29.79,West,270,1.0,2.0,82,0.00,,,0.00,meteohub,2013-05-11 04:17:00,
2013-05-11 06:22:00,52.0,46.6,29.79,WSW,248,0.0,2.0,82,0.00,,,0.00,meteohub,2013-05-11 04:22:00,
2013-05-11 06:27:00,52.0,46.6,29.79,NW,315,0.0,2.0,82,0.00,,,0.00,meteohub,2013-05-11 04:27:00,
2013-05-11 06:32:00,52.2,46.8,29.79,SW,225,2.0,2.0,82,0.00,,,0.00,meteohub,2013-05-11 04:32:00,
2013-05-11 06:37:00,52.2,46.8,29.79,North,0,2.0,2.0,82,0.00,,,0.00,meteohub,2013-05-11 04:37:00,
2013-05-11 06:42:00,52.3,46.9,29.79,SE,135,3.0,4.0,82,0.00,,,0.00,meteohub,2013-05-11 04:42:00,
2013-05-11 06:47:00,52.2,46.8,29.79,NNW,338,2.0,4.0,82,0.00,,,0.00,meteohub,2013-05-11 04:47:00,
2013-05-11 06:52:00,52.3,46.9,29.79,WSW,248,4.0,4.0,82,0.00,,,0.00,meteohub,2013-05-11 04:52:00,
2013-05-11 06:57:00,52.3,46.9,29.78,NW,315,2.0,4.0,82,0.00,,,0.00,meteohub,2013-05-11 04:57:00,
2013-05-11 07:02:00,52.5,47.1,29.78,North,0,0.0,4.0,82,0.00,,,0.00,meteohub,2013-05-11 05:02:00,
2013-05-11 07:07:00,52.3,46.9,29.78,East,90,0.0,4.0,82,0.00,,,0.00,meteohub,2013-05-11 05:07:00,
2013-05-11 07:12:00,52.7,47.3,29.78,NNE,23,2.0,3.0,82,0.00,,,0.00,meteohub,2013-05-11 05:12:00,
2013-05-11 07:17:00,52.7,47.3,29.77,WNW,293,2.0,3.0,82,0.00,,,0.00,meteohub,2013-05-11 05:17:00,
2013-05-11 07:22:00,52.7,47.3,29.77,NNE,23,4.0,4.0,82,0.00,,,0.00,meteohub,2013-05-11 05:22:00,
2013-05-11 07:27:00,52.7,47.1,29.77,WNW,293,2.0,4.0,81,0.00,,,0.00,meteohub,2013-05-11 05:27:00,
2013-05-11 07:32:00,52.9,47.3,29.77,NW,315,2.0,5.0,81,0.00,,,0.00,meteohub,2013-05-11 05:32:00,
2013-05-11 07:37:00,53.1,47.3,29.81,WSW,248,3.0,5.0,81,0.00,,,0.00,meteohub,2013-05-11 05:37:00,
2013-05-11 07:42:00,53.1,47.3,29.81,South,180,4.0,5.0,81,0.00,,,0.00,meteohub,2013-05-11 05:42:00,
2013-05-11 07:47:00,53.1,47.3,29.81,SE,135,2.0,4.0,81,0.00,,,0.00,meteohub,2013-05-11 05:47:00,
2013-05-11 07:52:00,53.2,47.3,29.81,ESE,113,2.0,4.0,80,0.00,,,0.00,meteohub,2013-05-11 05:52:00,
2013-05-11 07:57:00,53.2,47.3,29.88,NNE,23,2.0,4.0,80,0.00,,,0.00,meteohub,2013-05-11 05:57:00,
2013-05-11 08:02:00,53.4,47.5,29.88,NW,315,2.0,3.0,80,0.00,,,0.00,meteohub,2013-05-11 06:02:00,
2013-05-11 08:07:00,53.4,47.5,29.88,West,270,2.0,3.0,80,0.00,,,0.00,meteohub,2013-05-11 06:07:00,
2013-05-11 08:12:00,53.6,47.7,29.88,SSW,203,4.0,4.0,80,0.00,,,0.00,meteohub,2013-05-11 06:12:00,
2013-05-11 08:18:00,53.6,47.7,29.89,South,180,4.0,6.0,80,0.00,,,0.00,meteohub,2013-05-11 06:18:00,
2013-05-11 08:23:00,53.8,47.8,29.89,WNW,293,2.0,6.0,80,0.00,,,0.00,meteohub,2013-05-11 06:23:00,
2013-05-11 08:28:00,53.8,47.5,29.89,SSW,203,2.0,4.0,79,0.00,,,0.00,meteohub,2013-05-11 06:28:00,
2013-05-11 08:33:00,54.1,47.8,29.89,WSW,248,2.0,4.0,79,0.00,,,0.00,meteohub,2013-05-11 06:33:00,
2013-05-11 08:38:00,54.1,47.8,29.90,NNW,338,3.0,4.0,79,0.00,,,0.00,meteohub,2013-05-11 06:38:00,
2013-05-11 08:43:00,54.0,47.7,29.90,NE,45,3.0,4.0,79,0.00,,,0.00,meteohub,2013-05-11 06:43:00,
2013-05-11 08:48:00,54.1,47.8,29.90,SW,225,2.0,4.0,79,0.00,,,0.00,meteohub,2013-05-11 06:48:00,
2013-05-11 08:53:00,54.1,47.8,29.90,NNE,23,2.0,3.0,79,0.00,,,0.00,meteohub,2013-05-11 06:53:00,
2013-05-11 08:58:00,54.1,47.8,29.90,NW,315,2.0,3.0,79,0.00,,,0.00,meteohub,2013-05-11 06:58:00,
2013-05-11 09:03:00,54.1,47.8,29.90,ENE,68,3.0,5.0,79,0.00,,,0.00,meteohub,2013-05-11 07:03:00,
2013-05-11 09:08:00,54.1,47.8,29.90,NW,315,4.0,5.0,79,0.00,,,0.00,meteohub,2013-05-11 07:08:00,
2013-05-11 09:13:00,54.3,48.0,29.90,ENE,68,2.0,5.0,79,0.00,,,0.00,meteohub,2013-05-11 07:13:00,
2013-05-11 09:18:00,54.1,47.8,29.90,SW,225,2.0,4.0,79,0.00,,,0.00,meteohub,2013-05-11 07:18:00,
2013-05-11 09:23:00,54.3,48.0,29.90,WSW,248,2.0,7.0,79,0.00,,,0.00,meteohub,2013-05-11 07:23:00,
2013-05-11 09:28:00,54.1,48.0,29.90,WNW,293,3.0,7.0,80,0.00,,,0.00,meteohub,2013-05-11 07:28:00,
2013-05-11 09:33:00,53.4,48.0,29.90,WSW,248,10.0,10.0,82,0.00,,,0.00,meteohub,2013-05-11 07:33:00,
2013-05-11 09:38:00,52.5,47.5,29.91,SE,135,2.0,10.0,83,0.00,,,0.00,meteohub,2013-05-11 07:38:00,
2013-05-11 09:43:00,52.5,47.8,29.91,WSW,248,6.0,10.0,84,0.00,,,0.00,meteohub,2013-05-11 07:43:00,
2013-05-11 09:48:00,52.0,47.3,29.91,SW,225,3.0,10.0,84,0.00,,,0.00,meteohub,2013-05-11 07:48:00,
2013-05-11 09:53:00,51.8,47.5,29.91,WSW,248,4.0,6.0,85,0.00,,,0.00,meteohub,2013-05-11 07:53:00,
2013-05-11 09:58:00,52.0,48.2,29.92,WSW,248,0.0,6.0,87,0.00,,,0.00,meteohub,2013-05-11 07:58:00,
2013-05-11 10:03:00,52.0,48.2,29.92,WNW,293,3.0,4.0,87,0.00,,,0.00,meteohub,2013-05-11 08:03:00,
2013-05-11 10:08:00,52.2,48.7,29.92,South,180,4.0,4.0,88,0.00,,,0.00,meteohub,2013-05-11 08:08:00,
2013-05-11 10:13:00,52.5,49.5,29.92,West,270,4.0,4.0,89,0.00,,,0.00,meteohub,2013-05-11 08:13:00,
2013-05-11 10:18:00,52.3,49.3,29.91,WNW,293,0.0,5.0,89,0.00,,,0.00,meteohub,2013-05-11 08:18:00,
2013-05-11 10:23:00,52.2,49.1,29.91,South,180,2.0,5.0,89,0.00,,,0.00,meteohub,2013-05-11 08:23:00,
2013-05-11 10:28:00,52.2,49.1,29.91,West,270,2.0,5.0,89,0.00,,,0.00,meteohub,2013-05-11 08:28:00,
2013-05-11 10:33:00,52.7,49.5,29.91,WSW,248,0.0,4.0,89,0.00,,,0.00,meteohub,2013-05-11 08:33:00,
2013-05-11 10:38:00,52.7,49.5,29.92,WSW,248,4.0,4.0,89,0.00,,,0.00,meteohub,2013-05-11 08:38:00,
2013-05-11 10:43:00,52.7,49.5,29.92,NNW,338,3.0,4.0,89,0.00,,,0.00,meteohub,2013-05-11 08:43:00,
2013-05-11 10:48:00,52.7,49.5,29.92,WNW,293,0.0,4.0,89,0.00,,,0.00,meteohub,2013-05-11 08:48:00,
2013-05-11 10:53:00,52.5,49.5,29.92,WNW,293,2.0,4.0,89,0.00,,,0.00,meteohub,2013-05-11 08:53:00,
2013-05-11 10:58:00,52.7,49.5,29.92,WNW,293,2.0,3.0,89,0.00,,,0.00,meteohub,2013-05-11 08:58:00,
2013-05-11 11:03:00,52.7,49.5,29.92,WNW,293,2.0,2.0,89,0.00,,,0.00,meteohub,2013-05-11 09:03:00,
2013-05-11 11:08:00,52.7,49.5,29.92,NW,315,0.0,4.0,89,0.00,,,0.00,meteohub,2013-05-11 09:08:00,
2013-05-11 11:13:00,53.1,49.8,29.92,NW,315,3.0,4.0,89,0.00,,,0.00,meteohub,2013-05-11 09:13:00,
2013-05-11 11:18:00,53.1,49.8,29.92,SW,225,0.0,4.0,89,0.00,,,0.00,meteohub,2013-05-11 09:18:00,
2013-05-11 11:23:00,53.1,50.2,29.92,WSW,248,3.0,3.0,90,0.00,,,0.00,meteohub,2013-05-11 09:23:00,
2013-05-11 11:28:00,53.4,50.5,29.92,WSW,248,2.0,6.0,90,0.00,,,0.00,meteohub,2013-05-11 09:28:00,
2013-05-11 11:34:00,53.1,50.2,29.92,West,270,3.0,6.0,90,0.02,,,0.02,meteohub,2013-05-11 09:34:00,
2013-05-11 11:39:00,53.1,50.2,29.91,ENE,68,1.0,6.0,90,0.02,,,0.02,meteohub,2013-05-11 09:39:00,
2013-05-11 11:44:00,52.9,50.0,29.91,WSW,248,0.0,3.0,90,0.02,,,0.02,meteohub,2013-05-11 09:44:00,
2013-05-11 11:49:00,53.2,50.4,29.91,South,180,0.0,3.0,90,0.02,,,0.02,meteohub,2013-05-11 09:49:00,
2013-05-11 11:54:00,53.4,50.5,29.91,NW,315,2.0,3.0,90,0.02,,,0.02,meteohub,2013-05-11 09:54:00,
2013-05-11 11:59:00,53.8,50.9,29.93,West,270,1.0,2.0,90,0.02,,,0.02,meteohub,2013-05-11 09:59:00,
2013-05-11 12:04:00,53.6,50.7,29.93,NW,315,4.0,4.0,90,0.02,,,0.02,meteohub,2013-05-11 10:04:00,
2013-05-11 12:09:00,53.6,50.7,29.93,NW,315,4.0,5.0,90,0.02,,,0.02,meteohub,2013-05-11 10:09:00,
2013-05-11 12:14:00,54.0,50.2,29.93,NW,315,3.0,5.0,87,0.02,,,0.02,meteohub,2013-05-11 10:14:00,
2013-05-11 12:19:00,54.7,51.3,29.92,ESE,113,3.0,5.0,88,0.02,,,0.02,meteohub,2013-05-11 10:19:00,
2013-05-11 12:24:00,54.3,50.9,29.92,West,270,5.0,5.0,88,0.02,,,0.02,meteohub,2013-05-11 10:24:00,
2013-05-11 12:29:00,54.5,50.7,29.92,WSW,248,0.0,5.0,87,0.00,,,0.02,meteohub,2013-05-11 10:29:00,
2013-05-11 12:34:00,54.7,50.9,29.92,NE,45,5.0,6.0,87,0.00,,,0.02,meteohub,2013-05-11 10:34:00,
2013-05-11 12:39:00,55.2,51.4,29.92,WNW,293,0.0,7.0,87,0.00,,,0.02,meteohub,2013-05-11 10:39:00,
2013-05-11 12:44:00,55.0,50.9,29.92,WSW,248,4.0,7.0,86,0.00,,,0.02,meteohub,2013-05-11 10:44:00,
2013-05-11 12:49:00,55.4,50.9,29.92,WNW,293,3.0,7.0,85,0.00,,,0.02,meteohub,2013-05-11 10:49:00,
2013-05-11 12:54:00,55.6,51.1,29.92,ENE,68,2.0,4.0,85,0.00,,,0.02,meteohub,2013-05-11 10:54:00,
2013-05-11 12:59:00,55.6,50.9,29.91,NNW,338,4.0,4.0,84,0.00,,,0.02,meteohub,2013-05-11 10:59:00,
2013-05-11 13:04:00,55.6,50.9,29.91,NNW,338,2.0,6.0,84,0.00,,,0.02,meteohub,2013-05-11 11:04:00,
2013-05-11 13:09:00,55.9,51.4,29.91,NNW,338,3.0,6.0,85,0.00,,,0.02,meteohub,2013-05-11 11:09:00,
2013-05-11 13:14:00,55.9,51.4,29.91,NW,315,2.0,6.0,85,0.00,,,0.02,meteohub,2013-05-11 11:14:00,
2013-05-11 13:19:00,55.9,51.4,29.90,NNE,23,4.0,4.0,85,0.00,,,0.02,meteohub,2013-05-11 11:19:00,
2013-05-11 13:24:00,55.2,50.7,29.90,WSW,248,2.0,4.0,85,0.00,,,0.02,meteohub,2013-05-11 11:24:00,
2013-05-11 13:29:00,55.2,50.7,29.90,West,270,2.0,4.0,85,0.00,,,0.02,meteohub,2013-05-11 11:29:00,
2013-05-11 13:34:00,54.7,50.5,29.90,ENE,68,2.0,4.0,86,0.00,,,0.02,meteohub,2013-05-11 11:34:00,
2013-05-11 13:39:00,55.0,51.3,29.89,ENE,68,2.0,3.0,87,0.00,,,0.02,meteohub,2013-05-11 11:39:00,
2013-05-11 13:44:00,58.5,54.3,29.89,WSW,248,4.0,4.0,86,0.00,,,0.02,meteohub,2013-05-11 11:44:00,
2013-05-11 13:49:00,58.5,54.0,29.89,WNW,293,2.0,4.0,85,0.00,,,0.02,meteohub,2013-05-11 11:49:00,
2013-05-11 13:54:00,58.8,53.6,29.89,West,270,3.0,4.0,83,0.00,,,0.02,meteohub,2013-05-11 11:54:00,
2013-05-11 13:59:00,60.6,55.0,29.89,NNW,338,2.0,4.0,82,0.00,,,0.02,meteohub,2013-05-11 11:59:00,
2013-05-11 14:04:00,63.5,57.2,29.89,West,270,5.0,6.0,80,0.00,,,0.02,meteohub,2013-05-11 12:04:00,
2013-05-11 14:09:00,64.6,57.6,29.89,WNW,293,4.0,6.0,78,0.00,,,0.02,meteohub,2013-05-11 12:09:00,
2013-05-11 14:14:00,61.3,54.9,29.89,West,270,4.0,6.0,79,0.00,,,0.02,meteohub,2013-05-11 12:14:00,
2013-05-11 14:19:00,60.6,53.8,29.88,SW,225,7.0,7.0,78,0.00,,,0.02,meteohub,2013-05-11 12:19:00,
2013-05-11 14:24:00,63.0,55.6,29.88,West,270,6.0,7.0,77,0.00,,,0.02,meteohub,2013-05-11 12:24:00,
2013-05-11 14:29:00,67.1,57.7,29.88,WSW,248,4.0,7.0,72,0.00,,,0.02,meteohub,2013-05-11 12:29:00,
2013-05-11 14:34:00,70.0,56.3,29.88,NW,315,7.0,7.0,62,0.00,,,0.02,meteohub,2013-05-11 12:34:00,
2013-05-11 14:40:00,70.9,55.4,29.87,WSW,248,6.0,11.0,58,0.00,,,0.02,meteohub,2013-05-11 12:40:00,
2013-05-11 14:45:00,73.4,54.7,29.87,WNW,293,5.0,11.0,52,0.00,,,0.02,meteohub,2013-05-11 12:45:00,
2013-05-11 14:50:00,74.3,51.6,29.87,WSW,248,4.0,11.0,45,0.00,,,0.02,meteohub,2013-05-11 12:50:00,
2013-05-11 14:55:00,75.2,49.8,29.87,WSW,248,4.0,7.0,41,0.00,,,0.02,meteohub,2013-05-11 12:55:00,
2013-05-11 15:00:00,76.1,51.3,29.87,SW,225,4.0,7.0,42,0.00,,,0.02,meteohub,2013-05-11 13:00:00,
2013-05-11 15:05:00,76.5,48.9,29.87,West,270,9.0,9.0,38,0.00,,,0.02,meteohub,2013-05-11 13:05:00,
2013-05-11 15:10:00,76.5,49.6,29.87,NNW,338,8.0,9.0,39,0.00,,,0.02,meteohub,2013-05-11 13:10:00,
2013-05-11 15:15:00,76.8,49.3,29.87,South,180,7.0,9.0,38,0.00,,,0.02,meteohub,2013-05-11 13:15:00,
2013-05-11 15:20:00,76.5,48.9,29.86,WSW,248,8.0,9.0,38,0.00,,,0.02,meteohub,2013-05-11 13:20:00,
2013-05-11 15:25:00,73.4,48.2,29.86,SSW,203,6.0,9.0,41,0.00,,,0.02,meteohub,2013-05-11 13:25:00,
2013-05-11 15:30:00,72.5,48.7,29.86,South,180,3.0,8.0,43,0.00,,,0.02,meteohub,2013-05-11 13:30:00,
2013-05-11 15:35:00,69.6,46.8,29.86,SE,135,8.0,8.0,44,0.00,,,0.02,meteohub,2013-05-11 13:35:00,
2013-05-11 15:40:00,72.0,48.9,29.86,West,270,4.0,10.0,44,0.00,,,0.02,meteohub,2013-05-11 13:40:00,
2013-05-11 15:45:00,75.7,49.6,29.86,NW,315,8.0,10.0,40,0.00,,,0.02,meteohub,2013-05-11 13:45:00,
2013-05-11 15:50:00,73.9,48.7,29.86,SSW,203,4.0,10.0,41,0.00,,,0.02,meteohub,2013-05-11 13:50:00,
2013-05-11 15:55:00,76.6,48.4,29.86,West,270,5.0,9.0,37,0.00,,,0.02,meteohub,2013-05-11 13:55:00,
2013-05-11 16:00:00,76.3,48.7,29.86,WSW,248,3.0,9.0,38,0.00,,,0.02,meteohub,2013-05-11 14:00:00,
2013-05-11 16:05:00,74.8,48.2,29.86,West,270,4.0,9.0,39,0.00,,,0.02,meteohub,2013-05-11 14:05:00,
2013-05-11 16:10:00,74.8,48.2,29.86,SW,225,4.0,9.0,39,0.00,,,0.02,meteohub,2013-05-11 14:10:00,
2013-05-11 16:15:00,72.3,46.6,29.86,WSW,248,5.0,6.0,40,0.00,,,0.02,meteohub,2013-05-11 14:15:00,
2013-05-11 16:20:00,69.6,46.2,29.85,WSW,248,6.0,6.0,43,0.00,,,0.02,meteohub,2013-05-11 14:20:00,
2013-05-11 16:25:00,68.2,47.1,29.85,WSW,248,4.0,6.0,47,0.00,,,0.02,meteohub,2013-05-11 14:25:00,
2013-05-11 16:30:00,67.5,47.1,29.85,WSW,248,3.0,6.0,48,0.00,,,0.02,meteohub,2013-05-11 14:30:00,
2013-05-11 16:35:00,66.0,46.4,29.85,West,270,0.0,6.0,49,0.00,,,0.02,meteohub,2013-05-11 14:35:00,
2013-05-11 16:40:00,65.1,46.6,29.83,SSE,158,3.0,8.0,51,0.00,,,0.02,meteohub,2013-05-11 14:40:00,
2013-05-11 16:45:00,63.9,46.4,29.83,ENE,68,2.0,8.0,53,0.00,,,0.02,meteohub,2013-05-11 14:45:00,
2013-05-11 16:50:00,63.0,46.9,29.83,NW,315,4.0,8.0,56,0.00,,,0.02,meteohub,2013-05-11 14:50:00,
2013-05-11 16:55:00,62.4,46.9,29.83,SSE,158,4.0,7.0,57,0.00,,,0.02,meteohub,2013-05-11 14:55:00,
2013-05-11 17:00:00,61.7,47.3,29.85,SW,225,7.0,7.0,59,0.00,,,0.02,meteohub,2013-05-11 15:00:00,
2013-05-11 17:05:00,60.1,49.1,29.85,NE,45,0.0,7.0,67,0.00,,,0.02,meteohub,2013-05-11 15:05:00,
2013-05-11 17:10:00,60.3,50.4,29.85,SSW,203,3.0,7.0,70,0.00,,,0.02,meteohub,2013-05-11 15:10:00,
2013-05-11 17:15:00,60.1,50.2,29.85,WSW,248,4.0,8.0,70,0.00,,,0.02,meteohub,2013-05-11 15:15:00,
2013-05-11 17:20:00,59.9,50.2,29.83,ESE,113,6.0,8.0,70,0.00,,,0.02,meteohub,2013-05-11 15:20:00,
2013-05-11 17:25:00,59.2,49.5,29.83,SSE,158,2.0,8.0,70,0.00,,,0.02,meteohub,2013-05-11 15:25:00,
2013-05-11 17:30:00,58.6,48.9,29.83,SW,225,3.0,6.0,70,0.00,,,0.02,meteohub,2013-05-11 15:30:00,
2013-05-11 17:35:00,58.5,49.1,29.83,South,180,4.0,4.0,71,0.00,,,0.02,meteohub,2013-05-11 15:35:00,
2013-05-11 17:40:00,58.6,49.3,29.83,NNW,338,2.0,4.0,71,0.00,,,0.02,meteohub,2013-05-11 15:40:00,
2013-05-11 17:45:00,59.4,50.0,29.83,WSW,248,5.0,5.0,71,0.00,,,0.02,meteohub,2013-05-11 15:45:00,
2013-05-11 17:51:00,59.7,48.4,29.83,SW,225,6.0,7.0,66,0.00,,,0.02,meteohub,2013-05-11 15:51:00,
2013-05-11 17:56:00,59.9,48.6,29.83,NNE,23,4.0,7.0,66,0.00,,,0.02,meteohub,2013-05-11 15:56:00,
2013-05-11 18:01:00,59.9,47.7,29.83,WSW,248,5.0,9.0,64,0.00,,,0.02,meteohub,2013-05-11 16:01:00,
2013-05-11 18:06:00,60.1,47.5,29.83,WSW,248,4.0,9.0,63,0.00,,,0.02,meteohub,2013-05-11 16:06:00,
2013-05-11 18:11:00,60.6,47.5,29.83,WSW,248,3.0,9.0,62,0.00,,,0.02,meteohub,2013-05-11 16:11:00,
2013-05-11 18:16:00,60.6,47.5,29.83,NW,315,4.0,7.0,62,0.00,,,0.02,meteohub,2013-05-11 16:16:00,
2013-05-11 18:21:00,60.6,47.5,29.82,WNW,293,4.0,7.0,62,0.00,,,0.02,meteohub,2013-05-11 16:21:00,
2013-05-11 18:26:00,60.6,47.5,29.82,SW,225,2.0,7.0,62,0.00,,,0.02,meteohub,2013-05-11 16:26:00,
2013-05-11 18:31:00,60.4,47.3,29.82,SW,225,7.0,12.0,62,0.00,,,0.02,meteohub,2013-05-11 16:31:00,
2013-05-11 18:36:00,60.1,46.9,29.82,West,270,6.0,12.0,62,0.00,,,0.02,meteohub,2013-05-11 16:36:00,
2013-05-11 18:41:00,59.9,46.8,29.81,WSW,248,3.0,12.0,62,0.00,,,0.02,meteohub,2013-05-11 16:41:00,
2013-05-11 18:46:00,59.9,47.3,29.81,ENE,68,2.0,7.0,63,0.00,,,0.02,meteohub,2013-05-11 16:46:00,
2013-05-11 18:51:00,59.7,47.5,29.81,SW,225,2.0,6.0,64,0.00,,,0.02,meteohub,2013-05-11 16:51:00,
2013-05-11 18:56:00,59.9,47.7,29.81,SW,225,2.0,4.0,64,0.00,,,0.02,meteohub,2013-05-11 16:56:00,
2013-05-11 19:01:00,59.5,47.3,29.81,South,180,5.0,6.0,64,0.00,,,0.02,meteohub,2013-05-11 17:01:00,
2013-05-11 19:06:00,59.0,46.8,29.81,South,180,9.0,12.0,64,0.00,,,0.02,meteohub,2013-05-11 17:06:00,
2013-05-11 19:11:00,58.8,47.1,29.81,WSW,248,4.0,12.0,65,0.00,,,0.02,meteohub,2013-05-11 17:11:00,
2013-05-11 19:16:00,58.5,46.8,29.81,SSE,158,4.0,12.0,65,0.00,,,0.02,meteohub,2013-05-11 17:16:00,
2013-05-11 19:21:00,57.9,46.6,29.81,WSW,248,5.0,9.0,66,0.00,,,0.02,meteohub,2013-05-11 17:21:00,
2013-05-11 19:26:00,57.7,46.9,29.81,WNW,293,2.0,7.0,67,0.00,,,0.02,meteohub,2013-05-11 17:26:00,
2013-05-11 19:31:00,57.4,46.9,29.81,WSW,248,2.0,7.0,68,0.00,,,0.02,meteohub,2013-05-11 17:31:00,
2013-05-11 19:36:00,57.4,47.3,29.77,WSW,248,8.0,8.0,69,0.00,,,0.02,meteohub,2013-05-11 17:36:00,
2013-05-11 19:41:00,57.0,47.3,29.77,NE,45,10.0,10.0,70,0.00,,,0.02,meteohub,2013-05-11 17:41:00,
2013-05-11 19:46:00,56.3,47.8,29.77,SW,225,4.0,10.0,73,0.00,,,0.02,meteohub,2013-05-11 17:46:00,
2013-05-11 19:51:00,55.4,47.7,29.77,WNW,293,7.0,10.0,75,0.00,,,0.02,meteohub,2013-05-11 17:51:00,
2013-05-11 19:56:00,55.2,48.2,29.72,SW,225,6.0,10.0,77,0.00,,,0.02,meteohub,2013-05-11 17:56:00,
2013-05-11 20:01:00,55.0,48.0,29.72,SW,225,7.0,7.0,77,0.00,,,0.02,meteohub,2013-05-11 18:01:00,
2013-05-11 20:06:00,54.9,48.6,29.72,WSW,248,4.0,7.0,79,0.00,,,0.02,meteohub,2013-05-11 18:06:00,
2013-05-11 20:11:00,54.5,48.2,29.72,West,270,4.0,7.0,79,0.03,,,0.05,meteohub,2013-05-11 18:11:00,
2013-05-11 20:16:00,54.5,48.4,29.70,West,270,5.0,7.0,80,0.03,,,0.05,meteohub,2013-05-11 18:16:00,
2013-05-11 20:21:00,54.5,48.7,29.70,WSW,248,3.0,5.0,81,0.03,,,0.05,meteohub,2013-05-11 18:21:00,
2013-05-11 20:26:00,54.5,48.7,29.70,SSE,158,2.0,5.0,81,0.03,,,0.05,meteohub,2013-05-11 18:26:00,
2013-05-11 20:32:00,54.7,48.9,29.70,South,180,7.0,7.0,81,0.03,,,0.05,meteohub,2013-05-11 18:32:00,
2013-05-11 20:37:00,54.5,48.7,29.70,WNW,293,4.0,7.0,81,0.03,,,0.05,meteohub,2013-05-11 18:37:00,
2013-05-11 20:42:00,54.5,49.1,29.70,SW,225,4.0,15.0,82,0.03,,,0.05,meteohub,2013-05-11 18:42:00,
2013-05-11 20:47:00,54.5,49.1,29.70,West,270,6.0,15.0,82,0.03,,,0.05,meteohub,2013-05-11 18:47:00,
2013-05-11 20:52:00,54.3,49.3,29.70,West,270,5.0,15.0,83,0.03,,,0.05,meteohub,2013-05-11 18:52:00,
2013-05-11 20:57:00,54.1,49.1,29.68,West,270,4.0,7.0,83,0.03,,,0.05,meteohub,2013-05-11 18:57:00,
2013-05-11 21:02:00,54.0,48.9,29.68,South,180,6.0,12.0,83,0.03,,,0.05,meteohub,2013-05-11 19:02:00,
2013-05-11 21:07:00,53.6,48.9,29.68,WSW,248,3.0,12.0,84,0.00,,,0.05,meteohub,2013-05-11 19:07:00,
2013-05-11 21:12:00,53.4,48.7,29.68,SSW,203,6.0,12.0,84,0.00,,,0.05,meteohub,2013-05-11 19:12:00,
2013-05-11 21:17:00,52.9,48.7,29.68,West,270,5.0,6.0,86,0.00,,,0.05,meteohub,2013-05-11 19:17:00,
2013-05-11 21:22:00,52.7,48.9,29.68,West,270,2.0,6.0,87,0.00,,,0.05,meteohub,2013-05-11 19:22:00,
2013-05-11 21:27:00,52.2,48.7,29.68,West,270,7.0,7.0,88,0.00,,,0.05,meteohub,2013-05-11 19:27:00,
2013-05-11 21:32:00,52.0,48.9,29.68,NNE,23,8.0,8.0,89,0.00,,,0.05,meteohub,2013-05-11 19:32:00,
2013-05-11 21:37:00,52.0,48.9,29.68,NW,315,4.0,9.0,89,0.03,,,0.08,meteohub,2013-05-11 19:37:00,
2013-05-11 21:42:00,51.4,48.6,29.68,West,270,4.0,9.0,90,0.03,,,0.08,meteohub,2013-05-11 19:42:00,
2013-05-11 21:47:00,51.6,48.7,29.68,South,180,5.0,9.0,90,0.03,,,0.08,meteohub,2013-05-11 19:47:00,
2013-05-11 21:52:00,51.4,48.9,29.68,WSW,248,3.0,6.0,91,0.03,,,0.08,meteohub,2013-05-11 19:52:00,
2013-05-11 21:57:00,51.3,48.7,29.67,West,270,4.0,5.0,91,0.03,,,0.08,meteohub,2013-05-11 19:57:00,
2013-05-11 22:02:00,51.3,48.7,29.67,NW,315,4.0,5.0,91,0.03,,,0.08,meteohub,2013-05-11 20:02:00,
2013-05-11 22:07:00,51.3,48.7,29.67,West,270,4.0,4.0,91,0.03,,,0.08,meteohub,2013-05-11 20:07:00,
2013-05-11 22:12:00,51.1,48.6,29.67,West,270,3.0,4.0,91,0.03,,,0.08,meteohub,2013-05-11 20:12:00,
2013-05-11 22:17:00,51.3,48.7,29.68,NW,315,3.0,5.0,91,0.03,,,0.08,meteohub,2013-05-11 20:17:00,
2013-05-11 22:22:00,51.3,48.7,29.68,SW,225,2.0,5.0,91,0.03,,,0.08,meteohub,2013-05-11 20:22:00,
2013-05-11 22:27:00,51.3,48.7,29.68,NNW,338,3.0,6.0,91,0.03,,,0.08,meteohub,2013-05-11 20:27:00,
2013-05-11 22:32:00,51.3,49.1,29.68,NE,45,2.0,6.0,92,0.03,,,0.08,meteohub,2013-05-11 20:32:00,
2013-05-11 22:37:00,50.9,48.4,29.68,WSW,248,8.0,8.0,91,0.00,,,0.08,meteohub,2013-05-11 20:37:00,
2013-05-11 22:42:00,50.9,48.4,29.68,SSE,158,6.0,9.0,91,0.00,,,0.08,meteohub,2013-05-11 20:42:00,
2013-05-11 22:47:00,50.9,48.4,29.68,SW,225,4.0,9.0,91,0.00,,,0.08,meteohub,2013-05-11 20:47:00,
2013-05-11 22:52:00,50.9,48.4,29.68,ESE,113,5.0,9.0,91,0.03,,,0.11,meteohub,2013-05-11 20:52:00,
2013-05-11 22:57:00,50.5,48.0,29.69,SSE,158,3.0,11.0,91,0.03,,,0.11,meteohub,2013-05-11 20:57:00,
2013-05-11 23:02:00,50.5,48.4,29.69,SSE,158,5.0,11.0,92,0.03,,,0.11,meteohub,2013-05-11 21:02:00,
2013-05-11 23:07:00,50.2,48.0,29.69,WSW,248,2.0,11.0,92,0.03,,,0.11,meteohub,2013-05-11 21:07:00,
2013-05-11 23:12:00,50.2,48.0,29.69,South,180,4.0,9.0,92,0.06,,,0.11,meteohub,2013-05-11 21:12:00,
2013-05-11 23:17:00,49.8,47.7,29.69,East,90,2.0,5.0,92,0.06,,,0.13,meteohub,2013-05-11 21:17:00,
2013-05-11 23:22:00,49.8,47.7,29.69,West,270,6.0,6.0,92,0.06,,,0.13,meteohub,2013-05-11 21:22:00,
2013-05-11 23:27:00,49.8,47.7,29.69,WSW,248,4.0,6.0,92,0.06,,,0.13,meteohub,2013-05-11 21:27:00,
2013-05-11 23:32:00,49.8,47.8,29.69,NW,315,4.0,6.0,93,0.06,,,0.13,meteohub,2013-05-11 21:32:00,
2013-05-11 23:38:00,49.6,47.7,29.68,North,0,2.0,6.0,93,0.08,,,0.16,meteohub,2013-05-11 21:38:00,
2013-05-11 23:43:00,49.8,47.8,29.68,NNE,23,2.0,4.0,93,0.08,,,0.16,meteohub,2013-05-11 21:43:00,
2013-05-11 23:48:00,49.8,47.8,29.68,West,270,4.0,8.0,93,0.08,,,0.16,meteohub,2013-05-11 21:48:00,
2013-05-11 23:53:00,49.8,47.8,29.68,ESE,113,2.0,8.0,93,0.06,,,0.16,meteohub,2013-05-11 21:53:00,
2013-05-11 23:58:00,49.5,47.5,29.68,SW,225,2.0,8.0,93,0.06,,,0.16,meteohub,2013-05-11 21:58:00,